createdAt,value
2022-10-10T00:01:48.055Z,1.50
2022-10-10T00:04:17.027Z,1.53
2022-10-10T00:06:46.030Z,1.83
2022-10-10T00:09:14.963Z,1.37
2022-10-10T00:11:43.873Z,1.47
2022-10-10T00:14:14.176Z,1.60
2022-10-10T00:16:43.215Z,1.50
2022-10-10T00:19:12.306Z,1.63
2022-10-10T00:21:42.439Z,1.60
2022-10-10T00:24:11.435Z,1.30
2022-10-10T00:26:40.340Z,1.50
2022-10-10T00:29:09.337Z,1.23
2022-10-10T00:31:39.676Z,1.53
2022-10-10T00:34:08.633Z,2.00
2022-10-10T00:36:37.617Z,1.90
2022-10-10T00:39:06.576Z,1.70
2022-10-10T00:41:35.504Z,1.07
2022-10-10T00:44:07.349Z,1.83
2022-10-10T00:46:36.573Z,1.70
2022-10-10T00:49:11.404Z,1.50
2022-10-10T00:51:40.996Z,1.67
2022-10-10T00:54:13.536Z,1.40
2022-10-10T00:56:48.769Z,1.50
2022-10-10T00:59:19.588Z,1.40
2022-10-10T01:01:48.948Z,1.50
2022-10-10T01:04:34.814Z,1.40
2022-10-10T01:07:06.968Z,1.57
2022-10-10T01:09:38.748Z,1.50
2022-10-10T01:12:19.715Z,1.70
2022-10-10T01:14:54.769Z,2.30
2022-10-10T01:17:33.531Z,1.87
2022-10-10T01:20:42.123Z,1.90
2022-10-10T01:23:44.514Z,1.90
2022-10-10T01:26:39.128Z,2.10
2022-10-10T01:29:18.294Z,1.90
2022-10-10T01:31:52.265Z,2.30
2022-10-10T01:34:28.127Z,1.80
2022-10-10T01:37:02.918Z,1.63
2022-10-10T01:39:39.973Z,1.50
2022-10-10T01:42:15.678Z,1.93
2022-10-10T01:44:47.633Z,1.60
2022-10-10T01:47:16.678Z,1.70
2022-10-10T01:49:48.166Z,1.70
2022-10-10T01:52:29.437Z,1.57
2022-10-10T01:55:14.930Z,1.43
2022-10-10T01:57:58.561Z,2.33
2022-10-10T02:00:29.122Z,1.73
2022-10-10T02:03:05.639Z,1.80
2022-10-10T02:05:43.212Z,1.50
2022-10-10T02:08:16.050Z,1.57
2022-10-10T02:10:49.166Z,1.97
2022-10-10T02:13:19.256Z,1.80
2022-10-10T02:15:53.663Z,2.10
2022-10-10T02:18:26.925Z,1.67
2022-10-10T02:20:56.723Z,2.27
2022-10-10T02:23:26.526Z,2.00
2022-10-10T02:25:57.705Z,1.87
2022-10-10T02:28:32.755Z,2.20
2022-10-10T02:31:08.107Z,1.33
2022-10-10T02:33:52.781Z,1.97
2022-10-10T02:36:22.585Z,2.03
2022-10-10T02:38:53.892Z,1.90
2022-10-10T02:41:24.150Z,1.83
2022-10-10T02:43:53.758Z,2.43
2022-10-10T02:46:24.862Z,1.80
2022-10-10T02:48:54.470Z,2.10
2022-10-10T02:51:26.544Z,2.17
2022-10-10T02:53:58.630Z,2.53
2022-10-10T02:56:27.799Z,1.80
2022-10-10T02:58:57.460Z,1.57
2022-10-10T03:01:27.838Z,1.90
2022-10-10T03:03:56.829Z,2.07
2022-10-10T03:06:25.828Z,2.20
2022-10-10T03:08:54.791Z,2.17
2022-10-10T03:11:23.715Z,2.20
2022-10-10T03:13:52.676Z,1.60
2022-10-10T03:16:21.731Z,2.23
2022-10-10T03:18:52.073Z,2.27
2022-10-10T03:21:21.004Z,1.83
2022-10-10T03:23:49.942Z,2.17
2022-10-10T03:26:19.038Z,2.00
2022-10-10T03:28:47.965Z,2.07
2022-10-10T03:31:17.062Z,2.77
2022-10-10T03:33:46.050Z,2.13
2022-10-10T03:36:16.466Z,2.23
2022-10-10T03:38:45.449Z,2.07
2022-10-10T03:41:14.477Z,2.13
2022-10-10T03:43:43.420Z,2.10
2022-10-10T03:46:15.983Z,2.00
2022-10-10T03:48:45.416Z,2.00
2022-10-10T03:51:15.931Z,2.50
2022-10-10T03:53:44.933Z,2.23
2022-10-10T03:56:13.876Z,2.60
2022-10-10T03:58:42.808Z,2.50
2022-10-10T04:01:11.923Z,2.23
2022-10-10T04:03:41.051Z,2.27
2022-10-10T04:06:10.029Z,2.37
2022-10-10T04:08:40.354Z,2.07
2022-10-10T04:11:09.282Z,2.20
2022-10-10T04:13:38.224Z,2.17
2022-10-10T04:16:07.713Z,2.53
2022-10-10T04:18:36.651Z,2.13
2022-10-10T04:21:06.440Z,2.30
2022-10-10T04:23:35.407Z,2.10
2022-10-10T04:26:05.798Z,2.40
2022-10-10T04:28:34.862Z,2.10
2022-10-10T04:31:03.879Z,2.43
2022-10-10T04:33:32.798Z,2.60
2022-10-10T04:36:01.742Z,2.80
2022-10-10T04:38:30.681Z,2.63
2022-10-10T04:40:59.677Z,2.67
2022-10-10T04:43:30.154Z,2.33
2022-10-10T04:45:59.263Z,2.17
2022-10-10T04:48:28.479Z,2.30
2022-10-10T04:50:59.282Z,2.30
2022-10-10T04:53:28.403Z,2.30
2022-10-10T04:55:57.340Z,2.20
2022-10-10T04:58:26.423Z,2.17
2022-10-10T05:00:57.324Z,2.23
2022-10-10T05:03:26.890Z,2.67
2022-10-10T05:05:56.215Z,2.53
2022-10-10T05:08:25.266Z,2.90
2022-10-10T05:10:54.893Z,2.67
2022-10-10T05:13:23.856Z,3.00
2022-10-10T05:15:53.627Z,2.97
2022-10-10T05:18:24.151Z,2.70
2022-10-10T05:20:53.098Z,3.30
2022-10-10T05:23:22.037Z,3.20
2022-10-10T05:25:52.009Z,2.87
2022-10-10T05:28:21.204Z,3.17
2022-10-10T05:30:52.063Z,2.87
2022-10-10T05:33:21.074Z,2.97
2022-10-10T05:35:51.351Z,3.00
2022-10-10T05:38:20.272Z,2.83
2022-10-10T05:40:49.306Z,2.60
2022-10-10T05:43:18.334Z,2.70
2022-10-10T05:45:47.285Z,2.40
2022-10-10T05:48:16.272Z,2.90
2022-10-10T05:50:51.426Z,2.90
2022-10-10T05:53:20.396Z,3.07
2022-10-10T05:55:49.622Z,2.93
2022-10-10T05:58:18.766Z,2.80
2022-10-10T06:00:48.661Z,2.90
2022-10-10T06:03:18.008Z,3.00
2022-10-10T06:05:49.363Z,3.43
2022-10-10T06:08:19.665Z,2.73
2022-10-10T06:10:48.956Z,2.13
2022-10-10T06:13:24.092Z,3.10
2022-10-10T06:15:53.487Z,3.53
2022-10-10T06:18:22.504Z,3.53
2022-10-10T06:20:51.429Z,3.47
2022-10-10T06:23:21.930Z,3.20
2022-10-10T06:25:53.926Z,3.23
2022-10-10T06:28:23.084Z,3.37
2022-10-10T06:30:53.150Z,3.20
2022-10-10T06:33:22.116Z,3.30
2022-10-10T06:35:51.113Z,3.10
2022-10-10T06:38:21.413Z,3.50
2022-10-10T06:40:50.397Z,3.13
2022-10-10T06:43:19.582Z,4.37
2022-10-10T06:45:51.237Z,4.23
2022-10-10T06:48:20.213Z,3.87
2022-10-10T06:51:01.225Z,3.90
2022-10-10T06:53:31.547Z,3.97
2022-10-10T06:56:00.886Z,3.90
2022-10-10T06:58:31.101Z,4.00
2022-10-10T07:01:02.152Z,3.67
2022-10-10T07:03:32.262Z,4.13
2022-10-10T07:06:02.821Z,3.40
2022-10-10T07:08:33.208Z,3.67
2022-10-10T07:11:02.563Z,3.73
2022-10-10T07:13:31.723Z,3.70
2022-10-10T07:16:00.692Z,3.90
2022-10-10T07:18:30.097Z,4.30
2022-10-10T07:20:59.628Z,3.93
2022-10-10T07:23:29.474Z,3.73
2022-10-10T07:26:03.264Z,3.23
2022-10-10T07:28:32.757Z,3.30
2022-10-10T07:31:03.201Z,3.53
2022-10-10T07:33:36.880Z,3.13
2022-10-10T07:36:06.485Z,4.37
2022-10-10T07:38:35.867Z,3.70
2022-10-10T07:41:09.077Z,3.50
2022-10-10T07:43:38.459Z,3.20
2022-10-10T07:46:14.950Z,2.93
2022-10-10T07:48:43.976Z,3.30
2022-10-10T07:51:13.520Z,3.00
2022-10-10T07:53:44.099Z,2.93
2022-10-10T07:56:14.375Z,2.70
2022-10-10T07:58:43.379Z,2.50
2022-10-10T08:01:14.354Z,2.93
2022-10-10T08:03:43.509Z,2.90
2022-10-10T08:06:14.269Z,2.80
2022-10-10T08:08:50.747Z,2.93
2022-10-10T08:11:23.027Z,2.50
2022-10-10T08:13:52.190Z,2.83
2022-10-10T08:16:21.778Z,2.50
2022-10-10T08:18:50.738Z,2.07
2022-10-10T08:21:19.843Z,2.23
2022-10-10T08:23:48.814Z,2.00
2022-10-10T08:26:19.814Z,2.13
2022-10-10T08:28:50.121Z,1.97
2022-10-10T08:31:21.533Z,2.37
2022-10-10T08:33:52.564Z,2.20
2022-10-10T08:36:23.821Z,1.70
2022-10-10T08:38:57.337Z,1.80
2022-10-10T08:41:36.284Z,1.90
2022-10-10T08:44:15.186Z,2.00
2022-10-10T08:46:49.451Z,1.70
2022-10-10T08:49:25.222Z,1.90
2022-10-10T08:52:04.620Z,1.50
2022-10-10T08:54:35.581Z,2.10
2022-10-10T08:57:07.618Z,1.57
2022-10-10T08:59:41.608Z,1.60
2022-10-10T09:05:22.384Z,1.38
2022-10-10T09:08:08.441Z,1.35
2022-10-10T09:10:47.979Z,1.58
2022-10-10T09:13:30.777Z,1.60
2022-10-10T09:16:03.366Z,1.45
2022-10-10T09:18:45.155Z,1.60
2022-10-10T09:21:19.225Z,1.45
2022-10-10T09:23:54.835Z,1.15
2022-10-10T09:26:28.260Z,1.55
2022-10-10T09:29:01.903Z,1.23
2022-10-10T09:31:38.499Z,1.23
2022-10-10T09:34:16.030Z,1.48
2022-10-10T09:36:47.530Z,1.20
2022-10-10T09:39:24.132Z,1.10
2022-10-10T09:41:59.270Z,1.30
2022-10-10T09:44:28.750Z,1.40
2022-10-10T09:47:00.105Z,1.65
2022-10-10T09:49:30.627Z,1.40
2022-10-10T09:52:03.064Z,1.25
2022-10-10T09:54:32.144Z,1.33
2022-10-10T09:57:01.360Z,1.08
2022-10-10T09:59:42.389Z,1.30
2022-10-10T10:02:18.547Z,1.33
2022-10-10T10:04:48.636Z,1.40
2022-10-10T10:07:25.701Z,1.23
2022-10-10T10:09:57.018Z,1.20
2022-10-10T10:12:29.363Z,1.00
2022-10-10T10:15:05.181Z,1.38
2022-10-10T10:17:35.597Z,1.25
2022-10-10T10:20:10.663Z,1.10
2022-10-10T10:22:40.567Z,1.55
2022-10-10T10:25:32.848Z,1.45
2022-10-10T10:28:20.993Z,1.35
2022-10-10T10:30:53.187Z,1.30
2022-10-10T10:33:38.849Z,1.23
2022-10-10T10:36:19.712Z,1.40
2022-10-10T10:38:54.114Z,1.50
2022-10-10T10:41:30.662Z,1.20
2022-10-10T10:44:15.085Z,1.42
2022-10-10T10:46:59.205Z,1.65
2022-10-10T10:49:37.714Z,1.45
2022-10-10T10:52:42.343Z,1.23
2022-10-10T10:55:19.765Z,1.15
2022-10-10T11:01:23.351Z,1.15
2022-10-10T11:05:20.937Z,1.27
2022-10-10T11:07:18.267Z,1.17
2022-10-10T11:10:14.497Z,1.27
2022-10-10T11:12:55.414Z,1.33
2022-10-10T11:15:54.069Z,1.60
2022-10-10T11:18:25.081Z,1.13
2022-10-10T11:20:59.858Z,1.30
2022-10-10T11:23:35.280Z,1.63
2022-10-10T11:26:07.327Z,1.40
2022-10-10T11:28:43.999Z,1.52
2022-10-10T11:31:21.326Z,1.40
2022-10-10T11:33:56.254Z,1.35
2022-10-10T11:36:29.830Z,1.55
2022-10-10T11:39:06.443Z,1.25
2022-10-10T11:41:39.025Z,1.52
2022-10-10T11:44:12.726Z,1.30
2022-10-10T11:46:44.720Z,1.40
2022-10-10T11:49:20.905Z,1.42
2022-10-10T11:52:32.422Z,1.35
2022-10-10T11:55:11.251Z,1.45
2022-10-10T11:57:47.643Z,1.23
2022-10-10T12:00:18.989Z,1.60
2022-10-10T12:02:48.862Z,1.13
2022-10-10T12:05:26.198Z,1.40
2022-10-10T12:08:08.317Z,1.23
2022-10-10T12:10:44.244Z,1.20
2022-10-10T12:13:26.305Z,1.40
2022-10-10T12:15:57.885Z,1.65
2022-10-10T12:18:30.466Z,1.30
2022-10-10T12:21:11.211Z,1.27
2022-10-10T12:23:42.848Z,1.40
2022-10-10T12:26:18.293Z,1.00
2022-10-10T12:29:04.871Z,1.80
2022-10-10T12:31:36.164Z,1.50
2022-10-10T12:34:40.869Z,1.33
2022-10-10T12:37:25.871Z,1.60
2022-10-10T12:40:20.799Z,1.20
2022-10-10T12:43:24.952Z,1.75
2022-10-10T12:46:24.451Z,1.42
2022-10-10T12:49:19.350Z,1.38
2022-10-10T12:52:01.933Z,1.20
2022-10-10T12:54:38.920Z,1.42
2022-10-10T12:57:23.023Z,1.60
2022-10-10T12:59:53.629Z,1.63
2022-10-10T13:02:27.767Z,1.35
2022-10-10T13:04:59.769Z,1.30
2022-10-10T13:07:29.489Z,1.38
2022-10-10T13:10:08.352Z,1.33
2022-10-10T13:12:37.284Z,1.77
2022-10-10T13:15:21.383Z,1.30
2022-10-10T13:17:50.346Z,1.30
2022-10-10T13:20:31.504Z,1.50
2022-10-10T13:23:04.302Z,1.58
2022-10-10T13:25:34.741Z,1.30
2022-10-10T13:28:05.068Z,1.48
2022-10-10T13:30:38.628Z,1.75
2022-10-10T13:33:18.824Z,1.80
2022-10-10T13:35:49.188Z,1.27
2022-10-10T13:38:20.694Z,1.63
2022-10-10T13:40:49.992Z,1.73
2022-10-10T13:43:20.909Z,1.08
2022-10-10T13:45:58.790Z,1.42
2022-10-10T13:48:38.517Z,1.42
2022-10-10T13:51:10.900Z,1.70
2022-10-10T13:53:51.679Z,1.95
2022-10-10T13:56:27.661Z,1.65
2022-10-10T13:58:59.457Z,2.10
2022-10-10T14:01:39.557Z,1.95
2022-10-10T14:04:21.629Z,1.60
2022-10-10T14:07:00.459Z,1.60
2022-10-10T14:09:32.873Z,1.52
2022-10-10T14:12:03.662Z,1.60
2022-10-10T14:14:41.510Z,1.80
2022-10-10T14:17:13.019Z,1.80
2022-10-10T14:19:42.942Z,1.48
2022-10-10T14:22:12.014Z,1.65
2022-10-10T14:24:40.961Z,1.73
2022-10-10T14:27:16.216Z,1.98
2022-10-10T14:29:45.371Z,1.48
2022-10-10T14:32:17.590Z,1.63
2022-10-10T14:34:46.556Z,1.65
2022-10-10T14:37:20.820Z,1.92
2022-10-10T14:39:49.719Z,2.60
2022-10-10T14:42:20.063Z,1.55
2022-10-10T14:44:49.197Z,1.85
2022-10-10T14:47:21.451Z,2.03
2022-10-10T14:49:52.498Z,1.50
2022-10-10T14:52:21.403Z,1.75
2022-10-10T14:54:50.354Z,1.90
2022-10-10T14:57:22.315Z,1.80
2022-10-10T14:59:51.274Z,1.75
2022-10-10T15:02:23.290Z,1.83
2022-10-10T15:04:52.613Z,1.27
2022-10-10T15:07:21.510Z,1.52
2022-10-10T15:10:27.469Z,1.73
2022-10-10T15:12:42.534Z,1.67
2022-10-10T15:15:13.785Z,1.70
2022-10-10T15:17:44.322Z,1.80
2022-10-10T15:20:14.182Z,1.40
2022-10-10T15:22:43.401Z,2.00
2022-10-10T15:25:12.311Z,1.58
2022-10-10T15:27:41.341Z,1.52
2022-10-10T15:30:11.134Z,1.60
2022-10-10T15:32:41.040Z,1.80
2022-10-10T15:35:14.821Z,1.60
2022-10-10T15:37:44.286Z,1.67
2022-10-10T15:40:15.707Z,2.08
2022-10-10T15:42:44.661Z,1.45
2022-10-10T15:45:16.704Z,1.58
2022-10-10T15:47:51.720Z,1.80
2022-10-10T15:50:26.728Z,1.65
2022-10-10T15:52:55.933Z,1.65
2022-10-10T15:55:24.821Z,1.75
2022-10-10T15:57:53.820Z,1.65
2022-10-10T16:00:22.829Z,1.58
2022-10-10T16:02:51.730Z,1.65
2022-10-10T16:05:21.970Z,1.60
2022-10-10T16:07:53.576Z,2.13
2022-10-10T16:10:22.494Z,1.70
2022-10-10T16:12:51.648Z,2.10
2022-10-10T16:15:20.581Z,2.13
2022-10-10T16:17:49.688Z,1.65
2022-10-10T16:20:18.725Z,2.05
2022-10-10T16:22:48.965Z,1.65
2022-10-10T16:25:22.433Z,2.08
2022-10-10T16:27:52.625Z,2.42
2022-10-10T16:30:21.849Z,2.10
2022-10-10T16:32:50.798Z,1.90
2022-10-10T16:35:19.704Z,2.00
2022-10-10T16:37:50.012Z,1.93
2022-10-10T16:40:19.233Z,2.50
2022-10-10T16:42:48.188Z,2.17
2022-10-10T16:45:17.222Z,2.67
2022-10-10T16:47:46.234Z,2.53
2022-10-10T16:50:15.356Z,2.50
2022-10-10T16:52:44.354Z,2.80
2022-10-10T16:55:14.876Z,2.67
2022-10-10T16:57:43.840Z,3.33
2022-10-10T17:00:13.423Z,2.80
2022-10-10T17:02:42.936Z,3.83
2022-10-10T17:05:11.921Z,3.03
2022-10-10T17:07:40.839Z,3.23
2022-10-10T17:10:10.829Z,3.30
2022-10-10T17:12:41.375Z,2.50
2022-10-10T17:15:10.925Z,2.47
2022-10-10T17:17:40.156Z,3.10
2022-10-10T17:20:10.073Z,4.33
2022-10-10T17:22:40.879Z,3.63
2022-10-10T17:25:10.968Z,4.17
2022-10-10T17:27:43.438Z,3.60
2022-10-10T17:30:13.748Z,4.13
2022-10-10T17:32:43.376Z,3.90
2022-10-10T17:35:13.121Z,4.47
2022-10-10T17:37:42.076Z,4.17
2022-10-10T17:40:14.633Z,4.80
2022-10-10T17:42:45.035Z,3.10
2022-10-10T17:45:14.035Z,2.50
2022-10-10T17:47:43.137Z,1.73
2022-10-10T17:50:13.249Z,0.93
2022-10-10T17:52:42.226Z,1.27
2022-10-10T17:55:11.263Z,1.00
2022-10-10T17:57:40.240Z,0.90
2022-10-10T18:00:12.269Z,1.23
2022-10-10T18:02:41.306Z,1.30
2022-10-10T18:05:10.478Z,1.50
2022-10-10T18:07:39.464Z,1.13
2022-10-10T18:10:09.069Z,1.33
2022-10-10T18:12:38.067Z,1.23
2022-10-10T18:15:10.582Z,1.13
2022-10-10T18:17:39.590Z,1.03
2022-10-10T18:20:09.956Z,0.90
2022-10-10T18:22:38.937Z,1.20
2022-10-10T18:25:08.647Z,1.30
2022-10-10T18:27:38.357Z,1.00
2022-10-10T18:30:08.440Z,1.40
2022-10-10T18:32:38.898Z,1.30
2022-10-10T18:35:08.559Z,1.07
2022-10-10T18:37:37.852Z,1.50
2022-10-10T18:40:08.104Z,0.97
2022-10-10T18:42:37.949Z,1.17
2022-10-10T18:45:08.121Z,1.30
2022-10-10T18:47:38.883Z,1.27
2022-10-10T18:50:10.046Z,1.37
2022-10-10T18:52:39.150Z,1.20
2022-10-10T18:55:08.496Z,1.30
2022-10-10T18:57:38.886Z,1.27
2022-10-10T19:00:09.097Z,1.23
2022-10-10T19:02:39.482Z,1.57
2022-10-10T19:05:08.834Z,1.63
2022-10-10T19:07:37.863Z,0.90
2022-10-10T19:10:07.429Z,1.80
2022-10-10T19:12:36.624Z,1.53
2022-10-10T19:15:06.171Z,1.57
2022-10-10T19:17:37.829Z,1.80
2022-10-10T19:20:07.901Z,2.07
2022-10-10T19:22:37.515Z,2.07
2022-10-10T19:25:07.399Z,1.80
2022-10-10T19:27:37.150Z,1.80
2022-10-10T19:30:07.746Z,1.57
2022-10-10T19:32:38.437Z,2.33
2022-10-10T19:35:08.037Z,1.80
2022-10-10T19:37:37.398Z,1.63
2022-10-10T19:40:07.165Z,2.17
2022-10-10T19:42:36.228Z,2.10
2022-10-10T19:45:06.063Z,2.27
2022-10-10T19:47:35.509Z,1.60
2022-10-10T19:50:06.456Z,1.70
2022-10-10T19:52:35.639Z,1.80
2022-10-10T19:55:05.288Z,2.57
2022-10-10T19:57:34.429Z,1.57
2022-10-10T20:00:03.638Z,1.83
2022-10-10T20:02:43.894Z,1.83
2022-10-10T20:05:14.404Z,1.87
2022-10-10T20:07:44.046Z,1.90
2022-10-10T20:10:13.233Z,2.73
2022-10-10T20:12:42.259Z,2.50
2022-10-10T20:15:12.168Z,2.33
2022-10-10T20:17:45.249Z,2.87
2022-10-10T20:20:15.674Z,2.53
2022-10-10T20:22:45.015Z,2.53
2022-10-10T20:25:17.726Z,2.33
2022-10-10T20:27:46.875Z,2.27
2022-10-10T20:30:16.304Z,2.43
2022-10-10T20:32:45.404Z,2.37
2022-10-10T20:35:18.582Z,2.30
2022-10-10T20:37:47.849Z,2.40
2022-10-10T20:40:17.026Z,1.80
2022-10-10T20:42:46.175Z,2.17
2022-10-10T20:45:17.623Z,2.73
2022-10-10T20:47:46.809Z,2.03
2022-10-10T20:50:17.543Z,2.23
2022-10-10T20:52:46.785Z,2.30
2022-10-10T20:55:16.026Z,3.37
2022-10-10T20:57:45.072Z,3.10
2022-10-10T21:00:15.515Z,2.33
2022-10-10T21:02:44.599Z,1.67
2022-10-10T21:05:13.570Z,2.47
2022-10-10T21:07:45.812Z,2.10
2022-10-10T21:10:14.940Z,2.77
2022-10-10T21:12:43.944Z,2.40
2022-10-10T21:15:12.973Z,1.97
2022-10-10T21:17:42.111Z,1.53
2022-10-10T21:20:12.073Z,2.10
2022-10-10T21:22:41.074Z,2.17
2022-10-10T21:25:13.151Z,1.93
2022-10-10T21:27:42.172Z,2.07
2022-10-10T21:30:11.809Z,2.50
2022-10-10T21:32:40.848Z,1.93
2022-10-10T21:35:10.698Z,1.90
2022-10-10T21:37:39.701Z,1.90
2022-10-10T21:40:11.784Z,2.03
2022-10-10T21:42:40.879Z,2.40
2022-10-10T21:45:10.641Z,2.20
2022-10-10T21:47:42.163Z,2.50
2022-10-10T21:50:12.813Z,2.37
2022-10-10T21:52:41.776Z,2.40
2022-10-10T21:55:12.420Z,2.10
2022-10-10T21:57:41.375Z,1.87
2022-10-10T22:00:11.842Z,1.47
2022-10-10T22:02:41.067Z,2.00
2022-10-10T22:05:13.767Z,2.53
2022-10-10T22:07:44.775Z,1.90
2022-10-10T22:10:19.228Z,2.10
2022-10-10T22:12:48.431Z,2.50
2022-10-10T22:15:17.581Z,2.27
2022-10-10T22:17:46.586Z,2.00
2022-10-10T22:20:15.887Z,1.97
2022-10-10T22:22:45.166Z,1.70
2022-10-10T22:25:17.690Z,2.47
2022-10-10T22:27:47.059Z,2.13
2022-10-10T22:30:16.077Z,2.63
2022-10-10T22:32:45.000Z,2.03
2022-10-10T22:35:13.954Z,2.00
2022-10-10T22:37:42.885Z,2.43
2022-10-10T22:40:13.942Z,1.80
2022-10-10T22:42:42.883Z,2.10
2022-10-10T22:45:12.217Z,2.67
2022-10-10T22:47:41.150Z,2.13
2022-10-10T22:50:11.162Z,1.60
2022-10-10T22:52:40.766Z,1.63
2022-10-10T22:55:14.413Z,1.93
2022-10-10T22:57:47.682Z,1.90
2022-10-10T23:00:18.194Z,2.00
2022-10-10T23:02:47.301Z,2.50
2022-10-10T23:05:16.408Z,1.67
2022-10-10T23:07:45.388Z,2.30
2022-10-10T23:10:14.334Z,2.03
2022-10-10T23:12:43.394Z,1.70
2022-10-10T23:15:13.947Z,2.73
2022-10-10T23:17:42.913Z,2.00
2022-10-10T23:20:12.397Z,2.30
2022-10-10T23:22:41.347Z,2.10
2022-10-10T23:25:10.389Z,2.30
2022-10-10T23:27:39.387Z,1.70
2022-10-10T23:30:09.314Z,1.70
2022-10-10T23:32:39.657Z,2.13
2022-10-10T23:35:09.533Z,1.83
2022-10-10T23:37:38.561Z,1.97
2022-10-10T23:40:08.391Z,2.30
2022-10-10T23:42:37.385Z,1.70
2022-10-10T23:45:07.069Z,2.10
2022-10-10T23:47:36.030Z,2.43
2022-10-10T23:50:07.565Z,2.30
2022-10-10T23:52:36.676Z,2.20
2022-10-10T23:55:06.660Z,1.80
2022-10-10T23:57:35.627Z,1.73
